Time;durP1;ratioP1;P1;durP2;ratioP2;P2;SDS_P1;SDS_P2;PMS_P1;PMS_P2;Temp;Humidity;BMP_temperature;BMP_pressure;BME280_temperature;BME280_humidity;BME280_pressure;Samples;Min_cycle;Max_cycle;Signal;HPM_P1;HPM_P2
2022/07/17 00:01:07;;;;;;;2.03;0.20;;;21.50;53.30;;;;;;5019392;28;20923;-75
2022/07/17 00:03:34;;;;;;;1.52;0.20;;;21.50;53.60;;;;;;5019345;28;20401;-74
2022/07/17 00:06:01;;;;;;;1.63;0.73;;;21.50;54.50;;;;;;5027010;28;20184;-74
2022/07/17 00:08:30;;;;;;;1.83;0.20;;;21.50;54.60;;;;;;5012569;28;20045;-74
2022/07/17 00:10:58;;;;;;;1.73;0.40;;;21.40;55.60;;;;;;5024755;28;20050;-75
2022/07/17 00:13:25;;;;;;;1.63;0.30;;;21.40;55.40;;;;;;5029670;28;20046;-74
2022/07/17 00:15:52;;;;;;;2.25;0.30;;;21.30;56.20;;;;;;5019391;28;20069;-74
2022/07/17 00:18:20;;;;;;;2.00;0.30;;;21.30;56.30;;;;;;5018955;28;20037;-74
2022/07/17 00:20:47;;;;;;;1.10;0.30;;;21.20;56.60;;;;;;5018429;28;20455;-75
2022/07/17 00:23:14;;;;;;;2.75;0.45;;;21.20;56.70;;;;;;5026430;28;20416;-75
2022/07/17 00:25:41;;;;;;;1.25;0.38;;;21.10;55.40;;;;;;5020555;28;20469;-75
2022/07/17 00:28:08;;;;;;;1.17;0.30;;;21.10;55.90;;;;;;5026412;28;20128;-75
2022/07/17 00:30:36;;;;;;;2.53;0.20;;;21.10;56.50;;;;;;5025316;28;20033;-74
2022/07/17 00:33:03;;;;;;;2.25;0.35;;;21.00;56.50;;;;;;5023438;28;20056;-74
2022/07/17 00:35:30;;;;;;;2.63;0.30;;;20.90;57.00;;;;;;5027651;28;20110;-75
2022/07/17 00:37:57;;;;;;;1.45;0.40;;;20.90;57.40;;;;;;5020570;28;20049;-74
2022/07/17 00:40:25;;;;;;;0.98;0.38;;;20.90;57.20;;;;;;5024330;28;20046;-75
2022/07/17 00:42:52;;;;;;;2.28;0.22;;;20.80;57.30;;;;;;5024109;28;20047;-74
2022/07/17 00:45:20;;;;;;;3.13;0.20;;;20.70;57.50;;;;;;5018425;28;20037;-74
2022/07/17 00:47:58;;;;;;;0.60;0.20;;;20.70;57.70;;;;;;5021217;28;20065;-74
2022/07/17 00:50:31;;;;;;;0.52;0.20;;;20.60;58.10;;;;;;5040293;28;20129;-74
2022/07/17 00:52:59;;;;;;;1.67;0.47;;;20.50;58.10;;;;;;5024644;28;20080;-74
2022/07/17 00:55:27;;;;;;;3.53;0.73;;;20.50;58.40;;;;;;5020202;28;20041;-74
2022/07/17 00:58:21;;;;;;;1.63;0.40;;;20.50;59.30;;;;;;5021313;28;20045;-74
2022/07/17 01:00:51;;;;;;;1.17;0.20;;;20.40;59.30;;;;;;5022290;28;20492;-74
2022/07/17 01:03:21;;;;;;;0.82;0.35;;;20.30;58.80;;;;;;5008678;28;20084;-75
2022/07/17 01:05:49;;;;;;;1.23;0.30;;;20.30;58.70;;;;;;5025586;28;20452;-74
2022/07/17 01:08:17;;;;;;;0.60;0.22;;;20.20;59.20;;;;;;5004438;28;20061;-74
2022/07/17 01:10:44;;;;;;;1.98;0.38;;;20.20;60.30;;;;;;5027085;28;20069;-74
2022/07/17 01:13:11;;;;;;;1.27;0.28;;;20.10;59.70;;;;;;5022264;28;20408;-74
2022/07/17 01:15:40;;;;;;;2.30;0.20;;;20.00;59.90;;;;;;5020302;28;20042;-74
2022/07/17 01:18:11;;;;;;;3.80;0.50;;;20.00;59.80;;;;;;5017864;28;20501;-74
2022/07/17 01:20:40;;;;;;;1.48;0.30;;;20.00;59.70;;;;;;5020476;28;20097;-75
2022/07/17 01:23:09;;;;;;;1.08;0.20;;;19.90;59.80;;;;;;5024423;28;20038;-74
2022/07/17 01:25:36;;;;;;;2.95;0.40;;;19.80;60.30;;;;;;5023632;28;20037;-74
2022/07/17 01:28:04;;;;;;;1.20;0.30;;;19.80;61.60;;;;;;5023166;28;20040;-75
2022/07/17 01:30:32;;;;;;;2.03;0.20;;;19.80;62.10;;;;;;5020171;28;20065;-73
2022/07/17 01:33:00;;;;;;;1.90;0.40;;;19.70;62.50;;;;;;5010322;28;20046;-74
2022/07/17 01:35:28;;;;;;;3.42;0.30;;;19.70;63.10;;;;;;5026247;28;20046;-72
2022/07/17 01:37:55;;;;;;;1.17;0.30;;;19.60;62.80;;;;;;5023395;28;20039;-73
2022/07/17 01:40:22;;;;;;;2.45;0.47;;;19.60;63.00;;;;;;5013224;28;20053;-73
2022/07/17 01:42:49;;;;;;;2.80;0.47;;;19.60;63.60;;;;;;5028172;28;20140;-72
2022/07/17 01:45:18;;;;;;;3.22;0.35;;;19.60;63.60;;;;;;5025121;28;20049;-73
2022/07/17 01:47:47;;;;;;;2.45;0.40;;;19.60;64.10;;;;;;5025291;28;20127;-73
2022/07/17 01:50:15;;;;;;;0.90;0.43;;;19.60;64.40;;;;;;5025038;28;20053;-75
2022/07/17 01:52:44;;;;;;;2.42;0.30;;;19.50;64.40;;;;;;5028658;28;20415;-73
2022/07/17 01:55:13;;;;;;;2.05;0.50;;;19.50;65.00;;;;;;5029448;28;20048;-73
2022/07/17 01:57:41;;;;;;;1.23;0.50;;;19.40;65.10;;;;;;5027762;28;20136;-72
2022/07/17 02:00:14;;;;;;;4.47;0.47;;;19.40;64.90;;;;;;5021211;28;20416;-73
2022/07/17 02:02:41;;;;;;;2.67;0.47;;;19.30;64.60;;;;;;5031693;28;20393;-75
2022/07/17 02:05:08;;;;;;;2.67;0.50;;;19.40;64.40;;;;;;5027811;28;20046;-75
2022/07/17 02:07:39;;;;;;;1.83;0.30;;;19.30;64.70;;;;;;5031330;28;20043;-73
2022/07/17 02:10:08;;;;;;;2.05;0.70;;;19.20;65.30;;;;;;5024098;28;20053;-73
2022/07/17 02:12:36;;;;;;;2.35;0.30;;;19.10;65.60;;;;;;5026472;28;20484;-73
2022/07/17 02:15:04;;;;;;;3.95;0.40;;;19.20;65.70;;;;;;5023439;28;20033;-72
2022/07/17 02:17:31;;;;;;;1.33;0.50;;;19.00;65.80;;;;;;5029277;28;20428;-73
2022/07/17 02:19:58;;;;;;;0.80;0.20;;;18.90;65.70;;;;;;5011615;28;20041;-73
2022/07/17 02:22:26;;;;;;;1.90;0.32;;;18.90;65.50;;;;;;5026720;28;20053;-73
2022/07/17 02:24:53;;;;;;;1.30;0.50;;;18.80;66.10;;;;;;5020932;28;20053;-73
2022/07/17 02:27:20;;;;;;;2.10;0.40;;;18.80;66.10;;;;;;5021259;28;20055;-73
2022/07/17 02:29:47;;;;;;;0.82;0.45;;;18.80;65.50;;;;;;5025538;28;20512;-72
2022/07/17 02:32:14;;;;;;;1.58;0.50;;;18.80;66.00;;;;;;5020578;28;20074;-73
2022/07/17 02:34:42;;;;;;;2.53;0.30;;;18.60;66.40;;;;;;5021844;28;20496;-73
2022/07/17 02:37:10;;;;;;;2.03;0.35;;;18.60;66.30;;;;;;5031400;28;20052;-73
2022/07/17 02:39:51;;;;;;;1.02;0.30;;;18.70;65.60;;;;;;5019212;28;20049;-73
2022/07/17 02:42:24;;;;;;;2.45;0.60;;;18.70;65.90;;;;;;5023784;28;20030;-73
2022/07/17 02:44:52;;;;;;;1.48;0.50;;;18.60;65.50;;;;;;5024671;28;20042;-72
2022/07/17 02:47:32;;;;;;;0.70;0.20;;;18.60;65.60;;;;;;5030372;28;20062;-73
2022/07/17 02:50:01;;;;;;;2.20;0.50;;;18.50;65.80;;;;;;5019344;28;20041;-73
2022/07/17 02:52:28;;;;;;;2.25;0.35;;;18.50;66.10;;;;;;5025497;28;20045;-72
2022/07/17 02:54:55;;;;;;;1.25;0.57;;;18.40;66.10;;;;;;5027573;28;20060;-74
2022/07/17 02:57:22;;;;;;;1.90;0.30;;;18.40;66.40;;;;;;5024758;28;20034;-74
2022/07/17 02:59:49;;;;;;;2.33;0.30;;;18.40;66.70;;;;;;5026189;28;20037;-74
2022/07/17 03:02:16;;;;;;;1.92;0.35;;;18.30;67.30;;;;;;5025338;28;20117;-72
2022/07/17 03:04:44;;;;;;;2.53;0.50;;;18.30;67.00;;;;;;5008743;28;20038;-72
2022/07/17 03:07:11;;;;;;;1.98;0.35;;;18.30;66.70;;;;;;5026562;28;20065;-74
2022/07/17 03:09:38;;;;;;;2.63;0.30;;;18.20;66.80;;;;;;5016925;28;20045;-74
2022/07/17 03:12:06;;;;;;;1.60;0.52;;;18.20;66.70;;;;;;5027952;28;20563;-71
2022/07/17 03:14:33;;;;;;;2.08;0.30;;;18.10;66.50;;;;;;5024994;28;20046;-71
2022/07/17 03:17:00;;;;;;;4.43;0.40;;;18.10;66.50;;;;;;5024791;28;20033;-74
2022/07/17 03:19:27;;;;;;;1.15;0.30;;;18.10;66.60;;;;;;5026097;28;20044;-74
2022/07/17 03:21:54;;;;;;;3.85;0.30;;;18.10;66.80;;;;;;5021309;28;20034;-74
2022/07/17 03:24:22;;;;;;;4.38;0.65;;;18.00;66.70;;;;;;5026117;28;20501;-74
2022/07/17 03:26:49;;;;;;;1.83;0.57;;;18.00;67.30;;;;;;5023694;28;20048;-74
2022/07/17 03:29:17;;;;;;;1.52;0.60;;;17.90;67.90;;;;;;5026975;28;20050;-74
2022/07/17 03:31:46;;;;;;;1.67;0.40;;;17.90;68.50;;;;;;5022210;28;20465;-74
2022/07/17 03:34:14;;;;;;;3.35;0.80;;;17.90;69.10;;;;;;5021839;28;20504;-74
2022/07/17 03:36:41;;;;;;;3.55;0.57;;;17.90;69.90;;;;;;5005058;28;20049;-74
2022/07/17 03:39:09;;;;;;;2.03;0.52;;;17.90;70.20;;;;;;5013244;28;20037;-74
2022/07/17 03:41:36;;;;;;;4.00;1.05;;;17.90;70.80;;;;;;5031168;28;20124;-74
2022/07/17 03:44:03;;;;;;;3.28;0.47;;;17.90;71.30;;;;;;5022032;28;20404;-74
2022/07/17 03:46:31;;;;;;;3.47;0.60;;;17.80;71.70;;;;;;5021907;28;20496;-74
2022/07/17 03:48:58;;;;;;;2.15;0.40;;;17.80;71.10;;;;;;5028095;28;20053;-74
2022/07/17 03:51:25;;;;;;;1.42;0.35;;;17.80;70.30;;;;;;5027809;28;20056;-74
2022/07/17 03:53:53;;;;;;;3.15;0.65;;;17.90;70.80;;;;;;5030024;28;20099;-74
2022/07/17 03:56:20;;;;;;;5.63;0.75;;;17.90;70.10;;;;;;5025208;28;20116;-74
2022/07/17 03:58:48;;;;;;;3.30;0.57;;;17.80;69.60;;;;;;5033440;28;20500;-74
2022/07/17 04:01:15;;;;;;;1.75;0.25;;;17.80;69.40;;;;;;5038038;28;20129;-74
2022/07/17 04:03:42;;;;;;;1.52;0.40;;;18.00;70.40;;;;;;5025165;28;20073;-74
2022/07/17 04:06:09;;;;;;;2.88;0.50;;;18.00;69.50;;;;;;5026714;28;20111;-74
2022/07/17 04:08:36;;;;;;;3.55;0.60;;;18.10;69.40;;;;;;5018537;28;20485;-74
2022/07/17 04:11:04;;;;;;;1.33;0.40;;;18.20;69.20;;;;;;5002928;28;20049;-74
2022/07/17 04:13:37;;;;;;;2.58;0.40;;;18.20;68.70;;;;;;5025297;28;20043;-74
2022/07/17 04:16:04;;;;;;;1.38;0.30;;;18.30;68.30;;;;;;5026995;28;20042;-75
2022/07/17 04:18:34;;;;;;;2.95;0.52;;;18.30;67.00;;;;;;5003118;28;20145;-74
2022/07/17 04:21:06;;;;;;;3.55;0.30;;;18.40;66.10;;;;;;5023331;28;20049;-74
2022/07/17 04:23:34;;;;;;;0.65;0.22;;;18.50;65.80;;;;;;5027827;28;20061;-74
2022/07/17 04:26:02;;;;;;;1.35;0.30;;;18.60;65.80;;;;;;5034192;28;20044;-74
2022/07/17 04:28:37;;;;;;;1.05;0.20;;;18.70;65.20;;;;;;5024527;28;20466;-74
2022/07/17 04:31:04;;;;;;;1.48;0.40;;;18.70;65.10;;;;;;5024439;28;20858;-74
2022/07/17 04:33:31;;;;;;;2.05;0.45;;;18.80;65.10;;;;;;5025178;28;20042;-74
2022/07/17 04:35:58;;;;;;;1.67;0.43;;;18.80;64.60;;;;;;5036348;28;20080;-74
2022/07/17 04:38:26;;;;;;;1.20;0.40;;;18.90;64.40;;;;;;5026126;28;20396;-74
2022/07/17 04:40:53;;;;;;;0.75;0.20;;;19.00;64.20;;;;;;5017942;28;20041;-74
2022/07/17 04:43:20;;;;;;;0.93;0.30;;;19.10;64.00;;;;;;5026971;28;20045;-74
2022/07/17 04:45:47;;;;;;;1.50;0.20;;;19.10;63.70;;;;;;5028592;28;20408;-74
2022/07/17 04:48:14;;;;;;;0.35;0.20;;;19.20;63.60;;;;;;5024048;28;20556;-74
2022/07/17 04:50:41;;;;;;;2.22;0.20;;;19.30;63.00;;;;;;5021926;28;20045;-74
2022/07/17 04:53:08;;;;;;;0.75;0.10;;;19.30;62.20;;;;;;5027287;28;20123;-75
2022/07/17 04:55:36;;;;;;;0.95;0.40;;;19.30;62.00;;;;;;5027099;28;20049;-75
2022/07/17 04:58:04;;;;;;;0.65;0.20;;;19.40;61.60;;;;;;5022510;28;20041;-74
2022/07/17 05:00:31;;;;;;;0.45;0.10;;;19.50;61.10;;;;;;4999807;28;20046;-74
2022/07/17 05:02:58;;;;;;;2.45;0.20;;;19.60;60.80;;;;;;4986827;28;20843;-74
2022/07/17 05:05:25;;;;;;;0.40;0.10;;;19.80;60.50;;;;;;4988443;28;20041;-74
2022/07/17 05:07:53;;;;;;;0.93;0.30;;;19.80;59.30;;;;;;4974436;28;20150;-74
2022/07/17 05:10:20;;;;;;;1.42;0.20;;;20.00;59.30;;;;;;4989302;28;20716;-74
2022/07/17 05:12:53;;;;;;;2.05;0.10;;;20.00;58.40;;;;;;4972482;28;20098;-74
2022/07/17 05:15:20;;;;;;;2.35;0.10;;;20.20;58.70;;;;;;5003070;28;20041;-75
2022/07/17 05:17:48;;;;;;;1.98;0.10;;;20.40;57.80;;;;;;4997717;28;20519;-74
2022/07/17 05:20:15;;;;;;;0.85;0.13;;;20.40;56.30;;;;;;4958928;28;22249;-75
2022/07/17 05:22:42;;;;;;;0.20;0.03;;;20.50;55.70;;;;;;4986901;28;20071;-74
2022/07/17 05:25:09;;;;;;;2.03;0.10;;;20.70;56.00;;;;;;4987747;28;20392;-75
2022/07/17 05:27:36;;;;;;;1.75;0.20;;;20.80;55.00;;;;;;4965834;28;20053;-75
2022/07/17 05:30:04;;;;;;;1.65;0.10;;;21.10;55.20;;;;;;4986986;28;20049;-74
2022/07/17 05:32:31;;;;;;;0.88;0.10;;;21.10;54.00;;;;;;4987981;28;20132;-74
2022/07/17 05:34:58;;;;;;;0.28;0.00;;;21.20;53.50;;;;;;4970935;28;20061;-75
2022/07/17 05:37:25;;;;;;;3.72;0.10;;;21.30;53.90;;;;;;4971582;28;20041;-74
2022/07/17 05:39:52;;;;;;;0.40;0.10;;;21.40;53.30;;;;;;4989371;28;20056;-75
2022/07/17 05:42:19;;;;;;;1.55;0.10;;;21.40;53.40;;;;;;4985199;28;20045;-75
2022/07/17 05:44:46;;;;;;;0.80;0.10;;;21.30;52.40;;;;;;4988037;28;20053;-75
2022/07/17 05:47:13;;;;;;;1.05;0.10;;;21.20;52.80;;;;;;4987417;28;20104;-75
2022/07/17 05:49:41;;;;;;;1.33;0.22;;;21.40;52.60;;;;;;4982674;28;20045;-75
2022/07/17 05:52:08;;;;;;;3.17;0.17;;;21.80;52.90;;;;;;4987130;28;20045;-75
2022/07/17 05:54:35;;;;;;;1.50;0.20;;;21.90;52.10;;;;;;4973477;28;20048;-76
2022/07/17 05:57:02;;;;;;;0.50;0.10;;;22.00;51.40;;;;;;4988556;28;20278;-74
2022/07/17 05:59:36;;;;;;;1.10;0.10;;;21.90;51.20;;;;;;4973072;28;20580;-74
2022/07/17 06:02:03;;;;;;;1.50;0.10;;;21.90;50.80;;;;;;4982414;28;20041;-76
2022/07/17 06:04:30;;;;;;;2.30;0.10;;;21.70;50.30;;;;;;4978085;28;20631;-75
2022/07/17 06:06:58;;;;;;;1.52;0.10;;;21.90;50.30;;;;;;4985944;28;20054;-75
2022/07/17 06:09:25;;;;;;;1.70;0.10;;;21.80;50.00;;;;;;4986094;28;20054;-76
2022/07/17 06:11:52;;;;;;;1.17;0.10;;;22.00;50.00;;;;;;4985947;28;20859;-74
2022/07/17 06:14:19;;;;;;;1.95;0.00;;;22.20;50.00;;;;;;4986987;28;20052;-75
2022/07/17 06:16:46;;;;;;;0.45;0.00;;;22.60;49.90;;;;;;4972571;28;20092;-75
2022/07/17 06:19:13;;;;;;;0.68;0.10;;;22.30;48.70;;;;;;4984156;28;20049;-76
2022/07/17 06:21:40;;;;;;;0.35;0.03;;;22.20;49.60;;;;;;5003732;28;20065;-74
2022/07/17 06:24:07;;;;;;;1.27;0.10;;;22.10;49.70;;;;;;4988429;28;20041;-75
2022/07/17 06:26:34;;;;;;;2.05;0.00;;;22.30;48.80;;;;;;4984801;28;22475;-75
2022/07/17 06:29:02;;;;;;;0.50;0.20;;;22.70;49.20;;;;;;4987577;28;20129;-74
2022/07/17 06:31:29;;;;;;;1.30;0.10;;;22.60;48.40;;;;;;4990593;28;20049;-75
2022/07/17 06:33:57;;;;;;;1.75;0.10;;;22.60;48.90;;;;;;4989830;28;22148;-75
2022/07/17 06:36:24;;;;;;;5.45;0.52;;;22.80;48.50;;;;;;4975006;28;20051;-75
2022/07/17 06:38:51;;;;;;;2.55;0.10;;;22.90;48.50;;;;;;4976566;28;20045;-75
2022/07/17 06:41:19;;;;;;;0.38;0.10;;;23.20;47.90;;;;;;4989831;28;20060;-75
2022/07/17 06:43:46;;;;;;;0.40;0.10;;;23.00;48.00;;;;;;5004129;28;20095;-75
2022/07/17 06:46:13;;;;;;;0.30;0.00;;;22.70;47.30;;;;;;4967385;28;20057;-74
2022/07/17 06:48:40;;;;;;;0.80;0.13;;;22.60;47.20;;;;;;4989268;28;20531;-76
2022/07/17 06:51:07;;;;;;;1.05;0.05;;;23.10;47.80;;;;;;4960212;28;20080;-75
2022/07/17 06:53:34;;;;;;;3.50;0.52;;;23.30;46.90;;;;;;4976069;28;20109;-75
2022/07/17 06:56:02;;;;;;;0.40;0.13;;;22.70;46.80;;;;;;5005571;28;20095;-74
2022/07/17 06:58:29;;;;;;;3.65;0.10;;;22.80;47.60;;;;;;4974366;28;20055;-75
2022/07/17 07:00:56;;;;;;;0.93;0.10;;;22.90;46.70;;;;;;4972198;28;20045;-75
2022/07/17 07:03:23;;;;;;;2.85;0.20;;;23.20;47.50;;;;;;4986259;28;20559;-75
2022/07/17 07:05:50;;;;;;;0.85;0.00;;;23.60;46.40;;;;;;4985257;28;20529;-73
2022/07/17 07:08:17;;;;;;;2.20;0.10;;;23.20;44.70;;;;;;5005548;28;20207;-76
2022/07/17 07:10:45;;;;;;;1.08;0.10;;;23.10;45.60;;;;;;4990546;28;20049;-76
2022/07/17 07:13:12;;;;;;;0.50;0.10;;;23.40;45.30;;;;;;4987407;28;20054;-75
2022/07/17 07:15:39;;;;;;;1.80;0.10;;;23.60;44.50;;;;;;4987206;28;20088;-76
2022/07/17 07:18:06;;;;;;;0.73;0.10;;;23.90;43.60;;;;;;4987055;28;20060;-75
2022/07/17 07:20:34;;;;;;;0.10;0.00;;;23.70;43.90;;;;;;4974606;28;20056;-75
2022/07/17 07:23:01;;;;;;;0.30;0.00;;;23.80;44.40;;;;;;4971746;28;21788;-76
2022/07/17 07:25:33;;;;;;;2.70;0.10;;;23.70;43.50;;;;;;4986738;28;22194;-75
2022/07/17 07:28:05;;;;;;;0.60;0.10;;;23.60;43.10;;;;;;4955982;28;20116;-73
2022/07/17 07:30:32;;;;;;;0.45;0.03;;;23.80;43.30;;;;;;4976094;28;20089;-75
2022/07/17 07:32:59;;;;;;;0.15;0.00;;;24.10;43.00;;;;;;4989090;28;20053;-75
2022/07/17 07:35:26;;;;;;;1.33;0.10;;;24.20;42.90;;;;;;4994850;28;20046;-75
2022/07/17 07:37:54;;;;;;;0.30;0.10;;;23.80;42.00;;;;;;4983649;28;20053;-75
2022/07/17 07:40:21;;;;;;;0.82;0.03;;;24.10;43.00;;;;;;4974518;28;20413;-76
2022/07/17 07:42:48;;;;;;;2.72;0.10;;;24.30;43.00;;;;;;4984456;28;20045;-76
2022/07/17 07:45:15;;;;;;;0.68;0.10;;;24.10;41.90;;;;;;5003412;28;20041;-76
2022/07/17 07:47:45;;;;;;;0.35;0.00;;;24.20;42.10;;;;;;5000867;28;21342;-75
2022/07/17 07:50:13;;;;;;;4.68;0.20;;;24.40;42.50;;;;;;4982439;28;20152;-76
2022/07/17 07:52:41;;;;;;;1.33;0.10;;;24.10;42.20;;;;;;4987199;28;20061;-76
2022/07/17 07:55:10;;;;;;;0.60;0.10;;;23.70;42.50;;;;;;5004556;28;20210;-74
2022/07/17 07:57:45;;;;;;;0.98;0.10;;;24.10;43.20;;;;;;4988816;28;20045;-75
2022/07/17 08:00:13;;;;;;;0.50;0.10;;;24.10;42.80;;;;;;4981022;28;20037;-76
2022/07/17 08:02:41;;;;;;;3.38;0.20;;;24.30;42.30;;;;;;4985096;28;20091;-76
2022/07/17 08:05:08;;;;;;;1.50;0.40;;;24.20;42.40;;;;;;4985990;28;20084;-75
2022/07/17 08:07:36;;;;;;;0.93;0.10;;;24.10;43.00;;;;;;4989324;28;20045;-76
2022/07/17 08:10:04;;;;;;;0.88;0.10;;;24.50;42.90;;;;;;4969147;28;22417;-75
2022/07/17 08:12:32;;;;;;;0.45;0.15;;;24.50;42.80;;;;;;4999405;28;20645;-77
2022/07/17 08:15:17;;;;;;;0.88;0.35;;;24.30;42.50;;;;;;5018533;28;20045;-76
2022/07/17 08:17:45;;;;;;;0.80;0.03;;;24.30;42.90;;;;;;4994243;28;22439;-76
2022/07/17 08:20:14;;;;;;;1.80;0.10;;;24.50;42.50;;;;;;5003668;28;20096;-77
2022/07/17 08:22:43;;;;;;;0.30;0.13;;;24.70;42.40;;;;;;5016982;28;20224;-75
2022/07/17 08:25:31;;;;;;;0.35;0.00;;;24.40;42.10;;;;;;4998456;28;20519;-76
2022/07/17 08:27:58;;;;;;;2.20;0.10;;;24.90;44.10;;;;;;4997195;28;20424;-76
2022/07/17 08:30:25;;;;;;;0.43;0.00;;;24.60;42.00;;;;;;4987333;28;20206;-76
2022/07/17 08:32:52;;;;;;;1.00;0.00;;;24.70;42.80;;;;;;5007305;28;20045;-77
2022/07/17 08:35:20;;;;;;;0.65;0.10;;;24.50;41.30;;;;;;4973803;28;20049;-76
2022/07/17 08:37:50;;;;;;;2.53;0.10;;;24.80;42.10;;;;;;5000474;28;20836;-75
2022/07/17 08:40:23;;;;;;;1.25;0.20;;;24.90;42.00;;;;;;4986312;28;20056;-75
2022/07/17 08:42:50;;;;;;;0.45;0.10;;;25.10;42.60;;;;;;4984545;28;20576;-75
2022/07/17 08:45:17;;;;;;;10.35;0.80;;;25.10;41.80;;;;;;4983962;28;20515;-76
2022/07/17 08:47:45;;;;;;;1.48;0.00;;;24.80;41.50;;;;;;4981415;28;20152;-76
2022/07/17 08:50:13;;;;;;;1.17;0.10;;;25.00;43.30;;;;;;4986816;28;20789;-75
2022/07/17 08:52:42;;;;;;;1.05;0.15;;;25.10;43.30;;;;;;4979242;28;20596;-76
2022/07/17 08:55:12;;;;;;;0.38;0.10;;;24.90;41.90;;;;;;4969023;28;20064;-76
2022/07/17 08:57:41;;;;;;;0.80;0.10;;;25.00;42.40;;;;;;4972032;28;20145;-75
2022/07/17 09:00:15;;;;;;;0.60;0.00;;;25.00;42.70;;;;;;4985096;28;20057;-75
2022/07/17 09:03:03;;;;;;;0.50;0.10;;;25.10;42.90;;;;;;4971158;28;20088;-75
2022/07/17 09:05:35;;;;;;;1.73;0.10;;;25.30;42.90;;;;;;4987285;28;20271;-75
2022/07/17 09:08:03;;;;;;;0.82;0.00;;;25.20;42.80;;;;;;4986724;28;20065;-75
2022/07/17 09:10:52;;;;;;;1.95;0.10;;;25.00;42.40;;;;;;4989826;28;20535;-76
2022/07/17 09:13:26;;;;;;;1.33;0.10;;;25.00;42.50;;;;;;4986660;28;20046;-74
2022/07/17 09:15:58;;;;;;;0.38;0.10;;;24.70;42.00;;;;;;4984166;28;20088;-74
2022/07/17 09:18:26;;;;;;;2.15;0.30;;;25.10;43.70;;;;;;4982544;28;20052;-74
2022/07/17 09:20:56;;;;;;;3.05;0.10;;;25.20;42.90;;;;;;4982253;28;20052;-76
2022/07/17 09:23:25;;;;;;;0.32;0.03;;;25.00;42.10;;;;;;4984344;28;20519;-75
2022/07/17 09:25:55;;;;;;;1.83;0.10;;;25.10;42.80;;;;;;4989690;28;20046;-75
2022/07/17 09:28:23;;;;;;;2.60;0.20;;;25.40;42.90;;;;;;4972534;28;20055;-74
2022/07/17 09:30:53;;;;;;;2.72;0.10;;;25.20;42.50;;;;;;4985791;28;22375;-75
2022/07/17 09:33:23;;;;;;;1.67;0.10;;;25.00;41.90;;;;;;4970393;28;20061;-74
2022/07/17 09:35:54;;;;;;;2.15;0.10;;;24.70;41.90;;;;;;4987532;28;20120;-75
2022/07/17 09:38:33;;;;;;;0.88;0.10;;;24.90;42.10;;;;;;4967483;28;20052;-75
2022/07/17 09:41:09;;;;;;;0.63;0.10;;;25.20;42.70;;;;;;4969759;28;20467;-75
2022/07/17 09:43:52;;;;;;;1.30;0.10;;;25.20;42.00;;;;;;4988610;28;22765;-75
2022/07/17 09:46:23;;;;;;;1.33;0.10;;;25.10;41.80;;;;;;4988481;28;20065;-76
2022/07/17 09:49:01;;;;;;;0.98;0.20;;;25.10;41.30;;;;;;4964349;28;20049;-75
2022/07/17 09:51:39;;;;;;;1.00;0.20;;;25.30;41.60;;;;;;4969233;28;20212;-75
2022/07/17 09:54:08;;;;;;;2.97;0.10;;;25.40;41.50;;;;;;4985323;28;20465;-74
2022/07/17 09:56:37;;;;;;;0.65;0.10;;;25.10;41.30;;;;;;4999605;28;20147;-76
2022/07/17 09:59:07;;;;;;;0.10;0.00;;;25.10;42.30;;;;;;4987010;28;20057;-75
2022/07/17 10:01:35;;;;;;;0.55;0.10;;;25.10;41.30;;;;;;4988895;28;20045;-75
2022/07/17 10:04:04;;;;;;;2.65;0.10;;;25.20;42.10;;;;;;4989461;28;21733;-74
2022/07/17 10:06:31;;;;;;;1.05;0.10;;;25.30;42.60;;;;;;4984521;28;20053;-74
2022/07/17 10:09:00;;;;;;;1.60;0.15;;;25.60;42.60;;;;;;4987224;28;20053;-75
2022/07/17 10:11:30;;;;;;;1.23;0.10;;;25.60;41.40;;;;;;4998615;28;20528;-75
2022/07/17 10:14:05;;;;;;;0.57;0.10;;;25.50;41.80;;;;;;4982109;28;20063;-74
2022/07/17 10:16:35;;;;;;;0.80;0.10;;;25.30;41.20;;;;;;4987744;28;20053;-75
2022/07/17 10:19:03;;;;;;;0.20;0.10;;;25.30;41.10;;;;;;4988157;28;20049;-75
2022/07/17 10:21:31;;;;;;;1.42;0.10;;;25.70;42.30;;;;;;4988188;28;20086;-75
2022/07/17 10:23:59;;;;;;;1.23;0.10;;;25.70;40.50;;;;;;4987555;28;20049;-75
2022/07/17 10:26:38;;;;;;;2.72;0.10;;;25.30;40.00;;;;;;4987886;28;20047;-74
2022/07/17 10:29:29;;;;;;;0.77;0.10;;;25.40;40.00;;;;;;4987908;28;22179;-74
2022/07/17 10:31:57;;;;;;;0.30;0.10;;;25.70;41.40;;;;;;4988090;28;20049;-75
2022/07/17 10:34:45;;;;;;;1.50;0.13;;;25.60;40.20;;;;;;4989399;28;20072;-74
2022/07/17 10:37:15;;;;;;;0.40;0.20;;;25.30;40.60;;;;;;4989788;28;22096;-76
2022/07/17 10:40:04;;;;;;;2.05;0.10;;;25.20;42.00;;;;;;4972918;28;20038;-76
2022/07/17 10:42:40;;;;;;;1.60;0.10;;;25.40;41.80;;;;;;4987545;28;20045;-73
2022/07/17 10:45:19;;;;;;;0.93;0.10;;;25.40;40.60;;;;;;4976253;28;20781;-73
2022/07/17 10:48:00;;;;;;;1.42;0.08;;;25.40;39.80;;;;;;4993037;28;20057;-76
2022/07/17 10:50:36;;;;;;;0.28;0.10;;;25.50;39.90;;;;;;4988843;28;20926;-76
2022/07/17 10:53:03;;;;;;;2.00;0.10;;;25.40;39.60;;;;;;4989794;28;20037;-76
2022/07/17 10:55:31;;;;;;;1.30;0.10;;;25.30;39.70;;;;;;4966648;28;20045;-75
2022/07/17 10:57:58;;;;;;;2.15;0.40;;;25.30;40.10;;;;;;4986845;28;20057;-75
2022/07/17 11:00:26;;;;;;;1.00;0.10;;;25.50;40.80;;;;;;4987153;28;20045;-75
2022/07/17 11:02:53;;;;;;;1.52;0.05;;;25.40;40.40;;;;;;4987690;28;20278;-75
2022/07/17 11:05:21;;;;;;;1.00;0.10;;;25.40;40.40;;;;;;5004286;28;20085;-75
2022/07/17 11:07:58;;;;;;;0.50;0.10;;;25.50;40.80;;;;;;4989950;28;20073;-75
2022/07/17 11:10:28;;;;;;;1.15;0.10;;;25.40;40.40;;;;;;4986330;28;20038;-76
2022/07/17 11:13:10;;;;;;;1.85;0.10;;;25.50;40.80;;;;;;4989485;28;20052;-76
2022/07/17 11:15:46;;;;;;;0.43;0.10;;;25.60;41.00;;;;;;4985982;28;20262;-75
2022/07/17 11:18:20;;;;;;;2.33;0.10;;;25.80;41.80;;;;;;4986359;28;21925;-76
2022/07/17 11:20:49;;;;;;;1.40;0.10;;;25.80;41.40;;;;;;4971664;28;20056;-76
2022/07/17 11:23:16;;;;;;;0.45;0.17;;;25.80;41.40;;;;;;4965380;28;20614;-76
2022/07/17 11:25:55;;;;;;;1.48;0.10;;;25.70;41.00;;;;;;4981484;28;20492;-75
2022/07/17 11:28:34;;;;;;;1.75;0.45;;;25.90;41.40;;;;;;5000321;28;20148;-76
2022/07/17 11:31:04;;;;;;;0.32;0.00;;;25.90;40.40;;;;;;4998174;28;20053;-76
2022/07/17 11:33:31;;;;;;;1.05;0.10;;;25.80;40.60;;;;;;5004552;28;20100;-77
2022/07/17 11:35:59;;;;;;;1.73;0.10;;;25.80;40.50;;;;;;5001682;28;20132;-75
2022/07/17 11:38:28;;;;;;;0.40;0.10;;;25.90;40.10;;;;;;4973294;28;20041;-75
2022/07/17 11:40:56;;;;;;;0.57;0.10;;;25.90;39.90;;;;;;4989211;28;20201;-75
2022/07/17 11:43:28;;;;;;;2.08;0.20;;;25.60;39.90;;;;;;4999894;28;20045;-75
2022/07/17 11:45:55;;;;;;;3.22;0.10;;;25.70;40.00;;;;;;4957763;28;20049;-75
2022/07/17 11:48:22;;;;;;;0.60;0.10;;;25.90;41.80;;;;;;4975474;28;20412;-76
2022/07/17 11:50:54;;;;;;;4.53;0.40;;;26.20;41.20;;;;;;4987633;28;20404;-75
2022/07/17 11:53:30;;;;;;;;;;;26.30;41.00;;;;;;4989046;28;20740;-76
2022/07/17 11:55:58;;;;;;;2.33;0.25;;;26.20;40.70;;;;;;5002388;28;19929;-75
2022/07/17 11:58:25;;;;;;;1.40;0.10;;;26.10;40.10;;;;;;4990104;28;20128;-75
2022/07/17 12:01:03;;;;;;;0.82;0.10;;;26.30;40.00;;;;;;4981790;28;20099;-75
2022/07/17 12:03:31;;;;;;;1.85;0.10;;;26.20;39.60;;;;;;4987920;28;20546;-75
2022/07/17 12:05:58;;;;;;;2.50;0.20;;;26.30;39.90;;;;;;4988044;28;20070;-74
2022/07/17 12:08:25;;;;;;;0.90;0.10;;;26.30;39.20;;;;;;4975112;28;20057;-75
2022/07/17 12:11:05;;;;;;;0.40;0.10;;;26.10;39.10;;;;;;4984646;28;20548;-76
2022/07/17 12:13:39;;;;;;;0.65;0.10;;;26.10;39.00;;;;;;4974296;28;21910;-75
2022/07/17 12:16:28;;;;;;;2.67;0.28;;;26.20;39.60;;;;;;4971796;28;20053;-75
2022/07/17 12:19:03;;;;;;;0.80;0.10;;;26.40;39.80;;;;;;4988964;28;20041;-75
2022/07/17 12:21:32;;;;;;;0.40;0.17;;;26.50;39.60;;;;;;4987892;28;20045;-76
2022/07/17 12:24:04;;;;;;;0.90;0.10;;;26.60;39.20;;;;;;4987688;28;20041;-75
2022/07/17 12:26:32;;;;;;;0.50;0.10;;;26.40;39.20;;;;;;4967578;28;20085;-74
2022/07/17 12:29:00;;;;;;;0.73;0.10;;;26.40;38.20;;;;;;4989871;28;20051;-76
2022/07/17 12:31:28;;;;;;;1.58;0.10;;;26.40;39.30;;;;;;4984685;28;20317;-75
2022/07/17 12:33:55;;;;;;;0.22;0.05;;;26.30;38.20;;;;;;4986033;28;20037;-76
2022/07/17 12:36:23;;;;;;;0.60;0.10;;;26.40;37.70;;;;;;4976196;28;20634;-76
2022/07/17 12:38:51;;;;;;;1.02;0.10;;;26.40;37.50;;;;;;4989015;28;20093;-75
2022/07/17 12:41:18;;;;;;;1.02;0.10;;;26.40;36.80;;;;;;4988133;28;20056;-76
2022/07/17 12:43:45;;;;;;;1.88;0.10;;;26.20;36.80;;;;;;4987633;28;20785;-76
2022/07/17 12:46:13;;;;;;;0.82;0.10;;;26.30;36.70;;;;;;4986879;28;20140;-75
2022/07/17 12:48:53;;;;;;;0.30;0.10;;;26.40;36.80;;;;;;4984906;28;20084;-75
2022/07/17 12:51:20;;;;;;;0.52;0.15;;;26.40;37.30;;;;;;4984272;28;20693;-75
2022/07/17 12:53:47;;;;;;;0.63;0.20;;;26.50;36.90;;;;;;4988510;28;20053;-75
2022/07/17 12:56:14;;;;;;;0.95;0.30;;;26.50;37.80;;;;;;4998572;28;20111;-75
2022/07/17 12:58:42;;;;;;;3.97;0.20;;;26.70;39.50;;;;;;5019381;28;20038;-75